Amesbury, Massachusetts
Current Conditions -  °F | °C
As of 1:54 AM on Friday 31 Oct 2014 (Local Time) from KLWM Reporting Station
Overcast Overcast  
Wind Chill: 39°   Ceiling: 5500
Heat Index: 42°   Visibility: 10mi
Dew Point: 38°   Wind: 5mph
Humidity: 85%   Direction: 20°NNE
Pressure: 30.03"   Gusts: NA
Location:  42.86°N, 70.93°W
Report Text: KLWM 310554Z 02004KT 10SM OVC055 06/03 A3003 RMK AO2 SLP169 T00560033 10083 20044 51007
Loading
Personal Weather Stations






























Interactive Weather Map
Tropical Storm Tracking
New forecast layout! Learn more

10-Day Weather Forecast

Advertisements
Track Severe Weather on mobile